LDSPLDZA

Guest
Details From LDSP - Split
To LDZA - Zagreb
Flight Number -
Tags Generated
Created
Modified
Stats Distance 132 nm / 245 km
Max Altitude 0 ft / 0 m
Waypoints 2
Social Downloads 1
Likes 0
Share VATSIM

Download

Looking for another format? Having issues loading an existing format? Contact us
Advertisement - Login to hide

Notes

Generated

Route

LDSP LDZA

ID Type Via Altitude Latitude Longitude Leg Dist Tot Dist Heading (true) Name
O LDSP APT - 0 ft / 0 m 43.53205˚ 16.28558˚ - 0 nm - -
O LDZA APT - 0 ft / 0 m 45.73188˚ 16.05197˚ 132 nm 132 nm 356° / 356° -

Altitude Profile

Advertisement - Login to hide

LDSP

Details ICAO LDSP (SPU)
Name SPLIT
Region Croatia
Timezone Europe/Zagreb (UTC+1.0)
Stats Elevation 79 ft / 24 m (AMSL)
Location 43.539026° 16.298112°
Runways 1
Magnetic Variation 3.837° E

METAR

LDSP 151000Z 13011KT 9999 FEW025 BKN045 15/11 Q1005 NOSIG

Decode

TAF

TAF LDSP 150525Z 1506/1606 12012KT 9999 FEW020 BKN030 TX16/1512Z TN07/1603Z TEMPO 1506/1603 4000 RA PROB30 TEMPO 1518/1600 3000 TSRA FEW020CB BKN025 BECMG 1523/1601 34008KT

Decode

Departure Runways

ID Width Length Bearing (true) Bearing (mag) Surface Threshold Offset Overrun Length
05 148 ft / 45 m 8,357 ft / 2,547 m 52.48° 48.64° Asphalt 0 ft / 0 m 76 ft / 23 m
23 148 ft / 45 m 8,357 ft / 2,547 m 232.50° 228.66° Asphalt 525 ft / 160 m 820 ft / 250 m

LDZA

Details ICAO LDZA (ZAG)
Name Zagreb
Region Croatia
Timezone Europe/Zagreb (UTC+1.0)
Stats Elevation 353 ft / 108 m (AMSL)
Location 45.741890° 16.067200°
Runways 1
Magnetic Variation 3.959° E

METAR

LDZA 151000Z VRB01KT CAVOK 11/09 Q0999 TEMPO 23006KT

Decode

TAF

TAF LDZA 150525Z 1506/1606 23010KT 9999 SCT040 TX13/1512Z TN01/1601Z PROB30 TEMPO 1506/1514 SHRA FEW020TCU BKN025 BECMG 1512/1514 VRB02KT BECMG 1517/1519 05008KT RA BKN014 BECMG 1523/1601 4000 -SNRA BKN005 OVC010 BECMG 1603/1605 9999 NSW FEW010 SCT040

Decode

Destination Runways

ID Width Length Bearing (true) Bearing (mag) Surface Threshold Offset Overrun Length
05 148 ft / 45 m 10,659 ft / 3,249 m 46.69° 42.73° Asphalt 0 ft / 0 m 195 ft / 59 m
23 148 ft / 45 m 10,659 ft / 3,249 m 226.71° 222.75° Asphalt 0 ft / 0 m 195 ft / 59 m

Approach Navaids

Runway Type Ident Frequency Range Bearing (true) Bearing (mag) Slope Elevation
05 Localiser IZA 109.50 MHz 25 nm / 46 km 46.79° 42.83° - 335 ft / 102 m (AMSL)
05 Glidescope IZA 109.50 MHz 25 nm / 46 km 46.79° 42.83° 3.00° 344 ft / 105 m (AMSL)
05 DME IZA 109.50 MHz 25 nm / 46 km - - - 372 ft / 113 m (AMSL)
23 Localiser IZG 109.10 MHz 25 nm / 46 km 226.81° 222.85° - 344 ft / 105 m (AMSL)
23 Glidescope IZG 109.10 MHz 25 nm / 46 km 226.81° 222.85° 3.00° 344 ft / 105 m (AMSL)

Popular Alternatives